Terminal Aerodrome Forecast
Issued by NWS

Home | Current Version | Previous Version | Graphics & Text | Print | Product List | Glossary On
Versions: 1 2 3 4 5 6 7 8 9 10 11 12 13 14 15 16 17 18 19 20 21 22 23 24 25 26 27 28 29 30 31 32
000
FTUS43 KLOT 280900 AAB
TAFDPA
TAF AMD
KDPA 280900Z 2809/2906 01010KT P6SM SCT012 OVC035
     FM281000 02008KT P6SM SCT009 OVC012
     FM281100 01010KT 6SM BR OVC009
     FM281600 02011KT P6SM OVC012
     FM282000 02011KT P6SM BKN020
     FM290000 03006KT P6SM FEW025 SCT035 BKN200=

USA.gov is the U.S. government's official web portal to all federal, state and local government web resources and services.